createdAt,value
2019-02-06T00:02:11.393Z,33.53
2019-02-06T00:05:18.444Z,33.57
2019-02-06T00:08:25.303Z,33.20
2019-02-06T00:11:35.008Z,29.53
2019-02-06T00:14:40.588Z,33.37
2019-02-06T00:17:47.868Z,39.37
2019-02-06T00:20:54.699Z,39.97
2019-02-06T00:24:00.955Z,35.80
2019-02-06T00:27:07.755Z,34.77
2019-02-06T00:30:14.860Z,38.27
2019-02-06T00:33:21.353Z,38.53
2019-02-06T00:36:27.979Z,43.33
2019-02-06T00:39:34.949Z,37.73
2019-02-06T00:42:41.693Z,43.67
2019-02-06T00:45:48.732Z,52.47
2019-02-06T00:48:55.338Z,49.90
2019-02-06T00:52:03.742Z,50.43
2019-02-06T00:55:10.396Z,52.77
2019-02-06T00:58:16.878Z,50.13
2019-02-06T01:01:23.580Z,52.47
2019-02-06T01:04:29.792Z,53.60
2019-02-06T01:07:36.387Z,51.17
2019-02-06T01:10:42.748Z,52.43
2019-02-06T01:13:49.357Z,63.87
2019-02-06T01:16:56.046Z,63.00
2019-02-06T01:20:02.266Z,64.17
2019-02-06T01:23:09.576Z,51.20
2019-02-06T01:26:15.793Z,46.00
2019-02-06T01:29:24.168Z,49.57
2019-02-06T01:32:30.559Z,48.60
2019-02-06T01:35:37.203Z,50.13
2019-02-06T01:38:44.142Z,47.83
2019-02-06T01:41:50.436Z,48.17
2019-02-06T01:44:57.459Z,46.90
2019-02-06T01:48:03.884Z,46.97
2019-02-06T01:51:10.375Z,41.33
2019-02-06T01:54:17.081Z,37.37
2019-02-06T01:57:23.497Z,35.83
2019-02-06T02:00:30.268Z,29.30
2019-02-06T02:03:37.785Z,28.90
2019-02-06T02:06:44.224Z,28.43
2019-02-06T02:09:50.959Z,26.80
2019-02-06T02:12:57.471Z,27.63
2019-02-06T02:16:04.049Z,22.10
2019-02-06T02:19:10.418Z,21.60
2019-02-06T02:22:16.948Z,20.30
2019-02-06T02:25:24.065Z,16.70
2019-02-06T02:28:30.626Z,17.80
2019-02-06T02:31:37.619Z,14.90
2019-02-06T02:34:44.053Z,21.73
2019-02-06T02:37:51.685Z,13.57
2019-02-06T02:40:59.267Z,15.87
2019-02-06T02:44:05.775Z,16.03
2019-02-06T02:47:13.033Z,17.67
2019-02-06T02:50:19.670Z,18.90
2019-02-06T02:53:26.365Z,22.77
2019-02-06T02:56:32.996Z,16.37
2019-02-06T02:59:39.951Z,18.90
2019-02-06T03:02:55.216Z,16.00
2019-02-06T03:06:01.754Z,17.90
2019-02-06T03:09:12.539Z,14.87
2019-02-06T03:12:20.203Z,15.90
2019-02-06T03:15:28.919Z,14.20
2019-02-06T03:18:35.485Z,17.80
2019-02-06T03:21:42.731Z,20.10
2019-02-06T03:24:48.817Z,17.40
2019-02-06T03:27:55.186Z,18.10
2019-02-06T03:31:01.723Z,16.97
2019-02-06T03:34:08.022Z,19.73
2019-02-06T03:37:14.799Z,22.60
2019-02-06T03:40:21.363Z,26.03
2019-02-06T03:43:27.864Z,43.67
2019-02-06T03:46:35.362Z,33.23
2019-02-06T03:49:42.801Z,40.33
2019-02-06T03:52:50.172Z,44.40
2019-02-06T03:55:56.646Z,33.97
2019-02-06T03:59:03.302Z,28.73
2019-02-06T04:02:10.259Z,30.30
2019-02-06T04:05:16.779Z,35.83
2019-02-06T04:08:23.236Z,33.30
2019-02-06T04:11:29.918Z,36.13
2019-02-06T04:14:36.325Z,36.90
2019-02-06T04:17:42.904Z,47.37
2019-02-06T04:20:49.335Z,33.50
2019-02-06T04:23:56.610Z,36.23
2019-02-06T04:27:03.465Z,41.50
2019-02-06T04:30:11.122Z,44.43
2019-02-06T04:33:17.338Z,35.27
2019-02-06T04:36:23.908Z,33.13
2019-02-06T04:39:30.448Z,32.03
2019-02-06T04:42:37.313Z,30.77
2019-02-06T04:45:44.568Z,38.30
2019-02-06T04:48:51.015Z,46.53
2019-02-06T04:51:57.651Z,39.37
2019-02-06T04:55:04.456Z,28.17
2019-02-06T04:58:11.009Z,30.20
2019-02-06T05:01:17.397Z,32.37
2019-02-06T05:04:23.802Z,33.13
2019-02-06T05:07:30.214Z,33.27
2019-02-06T05:10:36.554Z,27.50
2019-02-06T05:13:43.692Z,33.23
2019-02-06T05:16:50.352Z,28.07
2019-02-06T05:19:57.647Z,26.83
2019-02-06T05:23:04.205Z,33.77
2019-02-06T05:26:11.327Z,23.73
2019-02-06T05:29:18.076Z,29.40
2019-02-06T05:32:24.646Z,19.83
2019-02-06T05:35:32.304Z,20.40
2019-02-06T05:38:38.443Z,19.80
2019-02-06T05:41:44.944Z,20.13
2019-02-06T05:44:51.575Z,19.73
2019-02-06T05:47:59.088Z,17.10
2019-02-06T05:51:06.254Z,18.87
2019-02-06T05:54:12.539Z,15.33
2019-02-06T05:57:19.086Z,21.27
2019-02-06T06:00:30.878Z,16.50
2019-02-06T06:03:37.574Z,18.53
2019-02-06T06:06:44.155Z,15.17
2019-02-06T06:09:50.880Z,15.93
2019-02-06T06:12:58.390Z,19.90
2019-02-06T06:16:05.044Z,17.27
2019-02-06T06:19:11.869Z,17.17
2019-02-06T06:22:18.379Z,14.50
2019-02-06T06:25:25.198Z,18.20
2019-02-06T06:28:31.502Z,22.13
2019-02-06T06:31:38.203Z,17.40
2019-02-06T06:34:44.879Z,21.97
2019-02-06T06:37:59.390Z,19.13
2019-02-06T06:40:59.961Z,22.37
2019-02-06T06:44:06.893Z,20.03
2019-02-06T06:47:13.810Z,29.77
2019-02-06T06:50:22.425Z,21.00
2019-02-06T06:53:28.909Z,21.17
2019-02-06T06:56:36.173Z,26.03
2019-02-06T06:59:42.699Z,27.33
2019-02-06T07:02:49.076Z,21.27
2019-02-06T07:05:56.013Z,25.13
2019-02-06T07:09:02.480Z,16.37
2019-02-06T07:12:10.502Z,20.40
2019-02-06T07:15:19.448Z,22.97
2019-02-06T07:18:26.174Z,24.07
2019-02-06T07:21:33.937Z,26.73
2019-02-06T07:24:42.179Z,25.40
2019-02-06T07:27:49.190Z,20.10
2019-02-06T07:30:55.957Z,28.60
2019-02-06T07:34:03.003Z,29.80
2019-02-06T07:37:09.707Z,23.10
2019-02-06T07:40:17.006Z,27.03
2019-02-06T07:43:24.014Z,43.30
2019-02-06T07:46:30.792Z,30.50
2019-02-06T07:49:37.512Z,27.27
2019-02-06T07:52:44.350Z,33.53
2019-02-06T07:55:51.181Z,42.50
2019-02-06T07:58:58.107Z,24.50
2019-02-06T08:02:04.602Z,35.10
2019-02-06T08:05:13.503Z,21.40
2019-02-06T08:08:19.879Z,26.70
2019-02-06T08:11:26.129Z,23.10
2019-02-06T08:14:32.774Z,17.27
2019-02-06T08:17:39.278Z,23.17
2019-02-06T08:20:45.555Z,20.17
2019-02-06T08:23:53.336Z,19.40
2019-02-06T08:26:59.825Z,28.90
2019-02-06T08:30:09.722Z,20.93
2019-02-06T08:33:16.122Z,20.97
2019-02-06T08:36:22.950Z,24.83
2019-02-06T08:39:29.671Z,28.73
2019-02-06T08:42:36.231Z,26.67
2019-02-06T08:45:42.599Z,22.80
2019-02-06T08:48:49.092Z,25.13
2019-02-06T08:51:55.430Z,25.33
2019-02-06T08:55:01.707Z,25.90
2019-02-06T08:58:08.924Z,22.57
2019-02-06T09:01:15.098Z,26.20
2019-02-06T09:04:21.876Z,27.80
2019-02-06T09:07:28.361Z,28.43
2019-02-06T09:10:35.031Z,24.97
2019-02-06T09:13:41.893Z,23.80
2019-02-06T09:16:48.258Z,29.37
2019-02-06T09:19:54.870Z,29.53
2019-02-06T09:23:01.547Z,29.50
2019-02-06T09:26:08.838Z,43.77
2019-02-06T09:29:15.887Z,32.60
2019-02-06T09:32:22.890Z,29.63
2019-02-06T09:35:29.696Z,30.43
2019-02-06T09:38:37.983Z,25.40
2019-02-06T09:41:45.204Z,26.63
2019-02-06T09:44:51.750Z,27.67
2019-02-06T09:47:58.114Z,27.43
2019-02-06T09:51:04.872Z,28.50
2019-02-06T09:54:12.379Z,24.90
2019-02-06T09:57:18.870Z,27.50
2019-02-06T10:00:31.218Z,26.30
2019-02-06T10:03:38.680Z,27.73
2019-02-06T10:06:45.532Z,26.60
2019-02-06T10:09:52.328Z,28.30
2019-02-06T10:13:00.304Z,27.80
2019-02-06T10:16:07.450Z,26.20
2019-02-06T10:19:14.191Z,17.20
2019-02-06T10:22:20.434Z,22.30
2019-02-06T10:25:27.031Z,28.80
2019-02-06T10:28:33.684Z,22.83
2019-02-06T10:31:40.028Z,24.83
2019-02-06T10:34:46.602Z,29.53
2019-02-06T10:37:53.388Z,24.17
2019-02-06T10:41:00.487Z,20.23
2019-02-06T10:44:07.740Z,13.27
2019-02-06T10:47:14.450Z,15.43
2019-02-06T10:50:23.105Z,16.07
2019-02-06T10:53:29.371Z,13.70
2019-02-06T10:56:37.076Z,8.83
2019-02-06T10:59:44.306Z,10.20
2019-02-06T11:02:51.667Z,11.93
2019-02-06T11:05:58.275Z,6.00
2019-02-06T11:09:07.050Z,12.00
2019-02-06T11:12:15.296Z,7.70
2019-02-06T11:15:22.486Z,6.33
2019-02-06T11:18:29.410Z,6.37
2019-02-06T11:21:38.540Z,6.07
2019-02-06T11:24:45.511Z,4.33
2019-02-06T11:27:52.139Z,5.07
2019-02-06T11:30:59.030Z,3.80
2019-02-06T11:34:06.032Z,4.83
2019-02-06T11:37:12.691Z,8.17
2019-02-06T11:40:21.633Z,10.50
2019-02-06T11:43:28.210Z,9.53
2019-02-06T11:46:35.342Z,3.97
2019-02-06T11:49:43.789Z,2.80
2019-02-06T11:52:50.416Z,3.97
2019-02-06T11:55:57.465Z,2.50
2019-02-06T11:59:04.302Z,2.83
2019-02-06T12:02:11.472Z,2.30
2019-02-06T12:05:18.327Z,2.40
2019-02-06T12:08:24.972Z,2.43
2019-02-06T12:11:31.443Z,2.57
2019-02-06T12:14:37.735Z,2.67
2019-02-06T12:17:44.575Z,3.53
2019-02-06T12:20:51.243Z,11.93
2019-02-06T12:23:57.675Z,6.03
2019-02-06T12:27:04.868Z,9.53
2019-02-06T12:30:18.748Z,2.93
2019-02-06T12:33:25.973Z,2.63
2019-02-06T12:36:32.911Z,4.00
2019-02-06T12:39:39.814Z,2.53
2019-02-06T12:42:46.275Z,2.50
2019-02-06T12:45:53.055Z,2.27
2019-02-06T12:49:00.023Z,2.97
2019-02-06T12:52:07.213Z,3.00
2019-02-06T12:55:19.618Z,10.50
2019-02-06T12:58:26.329Z,12.33
2019-02-06T13:01:36.546Z,7.47
2019-02-06T13:04:42.912Z,8.83
2019-02-06T13:07:50.847Z,12.50
2019-02-06T13:10:57.806Z,9.50
2019-02-06T13:14:04.932Z,14.37
2019-02-06T13:17:12.676Z,10.53
2019-02-06T13:20:24.269Z,12.00
2019-02-06T13:23:30.916Z,7.20
2019-02-06T13:26:38.287Z,11.87
2019-02-06T13:29:45.256Z,11.20
2019-02-06T13:32:51.732Z,8.40
2019-02-06T13:35:58.467Z,8.23
2019-02-06T13:39:08.020Z,8.47
2019-02-06T13:42:15.031Z,7.17
2019-02-06T13:45:24.252Z,5.10
2019-02-06T13:48:33.660Z,7.23
2019-02-06T13:51:39.414Z,5.60
2019-02-06T13:54:45.888Z,3.70
2019-02-06T13:57:52.492Z,5.10
2019-02-06T14:00:59.284Z,4.30
2019-02-06T14:04:05.923Z,9.23
2019-02-06T14:07:12.343Z,7.63
2019-02-06T14:10:22.673Z,7.37
2019-02-06T14:13:29.300Z,14.60
2019-02-06T14:16:36.252Z,8.27
2019-02-06T14:19:42.749Z,12.93
2019-02-06T14:23:01.628Z,12.27
2019-02-06T14:26:19.910Z,13.97
2019-02-06T14:30:02.066Z,20.30
2019-02-06T14:33:42.776Z,12.30
2019-02-06T14:37:27.583Z,9.30
2019-02-06T14:41:08.153Z,18.77
2019-02-06T14:44:58.803Z,8.50
2019-02-06T14:48:34.350Z,4.83
2019-02-06T14:52:11.498Z,6.77
2019-02-06T14:55:30.333Z,10.73
2019-02-06T14:59:16.546Z,13.20
2019-02-06T15:03:16.538Z,18.67
2019-02-06T15:07:01.487Z,10.40
2019-02-06T15:10:32.320Z,18.67
2019-02-06T15:14:32.378Z,10.60
2019-02-06T15:18:08.413Z,32.97
2019-02-06T15:21:50.329Z,89.27
2019-02-06T15:25:39.405Z,24.93
2019-02-06T15:29:41.810Z,69.80
2019-02-06T15:33:37.463Z,27.07
2019-02-06T15:37:24.385Z,18.03
2019-02-06T15:40:51.564Z,3.90
2019-02-06T15:44:24.512Z,7.90
2019-02-06T15:47:43.681Z,9.27
2019-02-06T15:51:46.738Z,9.07
2019-02-06T15:55:37.955Z,2.20
2019-02-06T15:59:09.133Z,3.70
2019-02-06T16:02:51.072Z,6.33
2019-02-06T16:06:32.427Z,5.50
2019-02-06T16:10:27.356Z,2.37
2019-02-06T16:13:57.975Z,3.57
2019-02-06T16:17:52.771Z,9.47
2019-02-06T16:21:38.775Z,5.37
2019-02-06T16:25:22.027Z,8.30
2019-02-06T16:29:03.818Z,6.90
2019-02-06T16:32:28.744Z,14.73
2019-02-06T16:36:19.240Z,10.37
2019-02-06T16:39:36.974Z,10.13
2019-02-06T16:43:18.853Z,12.20
2019-02-06T16:47:21.343Z,11.00
2019-02-06T16:51:14.730Z,10.20
2019-02-06T16:54:47.734Z,20.00
2019-02-06T16:58:45.176Z,48.83
2019-02-06T17:02:22.324Z,39.20
2019-02-06T17:05:57.675Z,47.37
2019-02-06T17:09:43.902Z,38.47
2019-02-06T17:13:49.376Z,46.17
2019-02-06T17:17:08.060Z,63.90
2019-02-06T17:20:55.337Z,171.07
2019-02-06T17:24:42.279Z,82.23
2019-02-06T17:28:14.140Z,60.63
2019-02-06T17:32:03.111Z,59.53
2019-02-06T17:35:55.868Z,59.80
2019-02-06T17:39:40.543Z,51.00
2019-02-06T17:43:04.474Z,47.73
2019-02-06T17:46:57.235Z,37.80
2019-02-06T17:50:32.851Z,33.97
2019-02-06T17:54:38.869Z,28.53
2019-02-06T17:57:45.845Z,31.53
2019-02-06T18:01:08.044Z,34.57
2019-02-06T18:04:30.046Z,40.20
2019-02-06T18:07:37.025Z,35.53
2019-02-06T18:10:44.217Z,52.27
2019-02-06T18:13:53.103Z,54.07
2019-02-06T18:16:59.766Z,47.00
2019-02-06T18:20:09.250Z,97.63
2019-02-06T18:23:16.099Z,93.80
2019-02-06T18:26:22.729Z,57.43
2019-02-06T18:29:29.783Z,48.43
2019-02-06T18:32:37.234Z,39.33
2019-02-06T18:35:44.317Z,38.77
2019-02-06T18:38:52.310Z,39.53
2019-02-06T18:42:00.005Z,35.23
2019-02-06T18:45:09.562Z,29.30
2019-02-06T18:48:16.677Z,38.80
2019-02-06T18:51:24.037Z,190.73
2019-02-06T18:54:30.607Z,224.77
2019-02-06T18:57:38.226Z,56.50
2019-02-06T19:00:44.848Z,34.40
2019-02-06T19:03:51.891Z,35.80
2019-02-06T19:06:58.988Z,58.70
2019-02-06T19:10:08.136Z,60.93
2019-02-06T19:13:15.613Z,51.80
2019-02-06T19:16:22.423Z,51.67
2019-02-06T19:19:31.754Z,68.17
2019-02-06T19:22:38.795Z,62.73
2019-02-06T19:25:45.258Z,57.20
2019-02-06T19:28:52.359Z,50.67
2019-02-06T19:31:59.329Z,56.73
2019-02-06T19:35:07.632Z,53.20
2019-02-06T19:38:14.592Z,57.63
2019-02-06T19:41:22.159Z,94.27
2019-02-06T19:44:28.964Z,60.50
2019-02-06T19:47:35.695Z,85.87
2019-02-06T19:50:42.952Z,93.43
2019-02-06T19:53:54.849Z,88.80
2019-02-06T19:57:01.933Z,92.40
2019-02-06T20:00:11.066Z,67.90
2019-02-06T20:03:18.148Z,41.40
2019-02-06T20:06:32.936Z,47.10
2019-02-06T20:09:39.871Z,51.43
2019-02-06T20:12:47.836Z,48.87
2019-02-06T20:15:55.041Z,45.10
2019-02-06T20:19:01.555Z,44.07
2019-02-06T20:22:08.996Z,19.50
2019-02-06T20:25:15.943Z,10.47
2019-02-06T20:28:22.683Z,14.30
2019-02-06T20:31:29.681Z,12.60
2019-02-06T20:34:36.951Z,15.27
2019-02-06T20:37:43.748Z,14.07
2019-02-06T20:40:51.724Z,15.67
2019-02-06T20:43:58.656Z,8.73
2019-02-06T20:47:05.328Z,13.50
2019-02-06T20:50:16.217Z,13.80
2019-02-06T20:53:23.141Z,9.20
2019-02-06T20:56:30.365Z,12.20
2019-02-06T20:59:37.457Z,13.87
2019-02-06T21:02:43.967Z,10.47
2019-02-06T21:05:50.485Z,13.27
2019-02-06T21:08:57.114Z,17.90
2019-02-06T21:12:03.963Z,15.20
2019-02-06T21:15:11.917Z,20.23
2019-02-06T21:18:18.788Z,18.77
2019-02-06T21:21:25.715Z,14.90
2019-02-06T21:24:32.669Z,16.97
2019-02-06T21:27:40.330Z,14.50
2019-02-06T21:30:47.915Z,14.50
2019-02-06T21:33:54.971Z,20.93
2019-02-06T21:37:01.650Z,13.33
2019-02-06T21:40:14.616Z,13.00
2019-02-06T21:43:21.317Z,17.53
2019-02-06T21:46:28.242Z,14.70
2019-02-06T21:49:35.439Z,14.40
2019-02-06T21:52:42.270Z,19.43
2019-02-06T21:55:52.487Z,11.30
2019-02-06T21:58:59.283Z,17.33
2019-02-06T22:02:06.050Z,14.67
2019-02-06T22:05:14.389Z,17.80
2019-02-06T22:08:22.207Z,23.30
2019-02-06T22:11:28.939Z,16.77
2019-02-06T22:14:35.440Z,14.83
2019-02-06T22:17:43.957Z,26.40
2019-02-06T22:20:52.955Z,33.67
2019-02-06T22:23:59.318Z,78.93
2019-02-06T22:27:05.717Z,49.73
2019-02-06T22:30:24.668Z,61.07
2019-02-06T22:33:31.560Z,48.47
2019-02-06T22:36:38.712Z,64.67
2019-02-06T22:39:45.396Z,67.10
2019-02-06T22:42:52.352Z,69.27
2019-02-06T22:45:59.441Z,54.70
2019-02-06T22:49:06.507Z,49.03
2019-02-06T22:52:12.786Z,51.47
2019-02-06T22:55:19.196Z,51.70
2019-02-06T22:58:25.870Z,42.77
2019-02-06T23:01:43.831Z,49.97
2019-02-06T23:04:50.451Z,58.83
2019-02-06T23:07:57.893Z,52.83
2019-02-06T23:11:04.716Z,39.47
2019-02-06T23:14:17.519Z,26.80
2019-02-06T23:17:20.041Z,37.37
2019-02-06T23:20:28.863Z,22.33
2019-02-06T23:23:35.347Z,7.40
2019-02-06T23:26:41.715Z,13.17
2019-02-06T23:29:48.255Z,4.80
2019-02-06T23:32:54.884Z,6.27
2019-02-06T23:36:01.386Z,8.63
2019-02-06T23:39:15.676Z,3.80
2019-02-06T23:42:22.220Z,8.03
2019-02-06T23:45:28.771Z,6.87
2019-02-06T23:48:35.705Z,2.23
2019-02-06T23:51:42.336Z,3.37
2019-02-06T23:54:49.308Z,4.03
2019-02-06T23:57:56.529Z,1.73
